Aviation Digital Data Service (ADDS)

Output produced by METARs form (0222 UTC 16 January 2019)
found at http://www.aviationweather.gov/metar/data/
 
ESSA 160150Z 25003KT CAVOK M11/M12 Q0997 R01L/510164 R08/510170 R01R/510169 NOSIG
TAF ESSA 152330Z 1600/1624 29004KT CAVOK 
     BECMG 1610/1612 16010KT 
     BECMG 1612/1614 1200 SN VV008 
     TEMPO 1614/1618 5000 -SN VV020 
     BECMG 1618/1620 8000 -RADZ BKN005 
     TEMPO 1620/1624 SCT005 BKN018
       
ESNX 160220Z AUTO 29003KT 9999 NCD M21/M24 Q0990
TAF ESNX 151730Z 1518/1521 30006KT 9999 -SN BKN020 
     TEMPO 1518/1521 4000 BKN014
       
ESSD 160150Z AUTO 28004KT 9999 NCD M12/M12 Q0997
ESSB 160150Z AUTO 30004KT 9999 NCD M09/M10 Q0997
TAF ESSB 151730Z 1518/1521 28005KT CAVOK
       
ESNG 160150Z AUTO 28004KT 9999 NCD M20/M22 Q0990
TAF ESNG 151730Z 1518/1522 30003KT 6000 -SN BKN015 
     TEMPO 1518/1522 2500 VV007
       
ESMT 160150Z AUTO 28009KT 9000 BR FEW015/// SCT026/// 04/03 Q0999
TAF AMD ESMT 151929Z 1519/1520 30015KT 9999 BKN015 
     TEMPO 1519/1520 30015G28KT BKN009
       
ESUT 160220Z AUTO 00000KT 0300 R33/0900N FZFG VV003 M19/M21 Q0992
ESGJ 160150Z AUTO 00000KT 9999 BKN008/// M02/M03 Q0997
TAF ESGJ 152330Z 1600/1602 30004KT 9999 SCT008 
     PROB40 1600/1602 0300 FZFG VV002
       
ESPA 160150Z AUTO 33006KT 9999 NCD M17/M19 Q0993
TAF COR ESPA 151803Z 1518/1523 32005KT CAVOK
       
ESMQ 160150Z AUTO 00000KT 9999 BKN029/// M03/M03 Q0999
TAF ESMQ 152030Z 1521/1523 33003KT 9999 BKN020 
     PROB40 1521/1523 BKN012
       
ESIA 160150Z AUTO 00000KT 9999 SCT028/// M04/M05 Q0997
ESOK 160150Z AUTO 04003KT 9999 NCD M06/M06 Q0997
TAF ESOK 151730Z 1518/1522 06005KT 8000 FEW005 BKN020 
     PROB40 1518/1521 -FZDZ 
     TEMPO 1518/1522 1200 -SN BKN005
       
ESNQ 160150Z AUTO 00000KT 0750 R03/P1500N R21/P1500N -SN OVC003/// M14/M15 Q0989
TAF ESNQ 152030Z 1521/1524 VRB02KT 2000 -SN SCT002 BKN030 
     TEMPO 1521/1524 8000 SN BKN002
       
ESNK 160150Z AUTO 01003KT 9999 NCD M18/M21 Q0996
TAF ESNK 151730Z 1518/1520 36002KT CAVOK
       
ESMK 160150Z AUTO 28008KT 9999 FEW032/// 05/// Q1000
TAF ESMK 151731Z 1518/1521 28015KT 9999 BKN015 
     TEMPO 1518/1521 28018G28KT
       
ESMX 160150Z AUTO 23003KT 6000 BR OVC013/// M00/M00 Q0998
TAF AMD ESMX 151758Z 1518/1521 28004KT 1400 SG BR BKN003 
     TEMPO 1518/1521 OVC006 
     BECMG 1518/1520 9999 NSW BKN020
       
ESSP 160150Z AUTO 36002KT 9999 SCT020/// OVC034/// M03/M05 Q0998
TAF ESSP 152030Z 1521/1523 29004KT 9999 -SN SCT030 
     PROB40 1521/1523 4000 -FZDZ BKN008
       
ESGG 160150Z 22003KT 7000 BR FEW072 M01/M02 Q0997 R21/31//95
TAF ESGG 152330Z 1600/1624 27005KT CAVOK 
     PROB40 1600/1605 0300 FG VV002 
     BECMG 1605/1607 1200 RASN OVC010 
     BECMG 1607/1609 8000 -RADZ OVC003 
     TEMPO 1608/1621 2500 BR BKN006 
     BECMG 1610/1612 25015G25KT 
     BECMG 1619/1621 28006KT 
     TEMPO 1621/1624 1500 RASN BKN008
       
ESTL 160150Z AUTO 28009KT 9999 FEW011/// OVC017/// 05/04 Q1000
ESNL 160220Z AUTO 00000KT 9999 NCD M30/M33 Q0994
ESCF 160150Z AUTO VRB01KT 9999 SCT006/// BKN021/// OVC027/// M04/M04 Q0998
TAF AMD ESCF 151805Z 1518/1521 24005KT 9999 BKN030 
     TEMPO 1518/1521 2000 FZDZ BKN005 RMK MIL
       
ESKM 160150Z AUTO 34003KT 9999 NCD M16/M18 Q0997
ESOE 160150Z AUTO 27003KT 0250 R01/1000N R19/P2000N VV000 M07/M08 Q0998
TAF ESOE 151730Z 1518/1522 31002KT 8000 -SN BKN025 
     PROB40 1518/1522 2500 SN BKN008
       
ESNO 160150Z AUTO 29003KT 9999 NCD M17/M19 Q0994
TAF ESNO 152030Z 1521/1523 32007KT CAVOK
       
ESUP 160150Z AUTO 23001KT 9999 -SN NCD M18/M20 Q0992
ESDF 160150Z AUTO 27002KT 9999 OVC019/// 01/01 Q0999
TAF AMD ESDF 152100Z 1521/1523 32006KT 9999 BKN020 
     TEMPO 1521/1523 BKN006
       
ESSL 160150Z AUTO 00000KT 9999 FEW007/// OVC034/// M04/M04 Q0998
TAF ESSL 152030Z 1521/1523 10004KT 9999 -SN SCT005 BKN040 
     PROB40 1521/1523 4000 -FZDZ BKN006
       
ESIB 160150Z AUTO 07003KT 9999 FEW015/// BKN110/// BKN160/// M02/M03 Q0998
TAF AMD ESIB 151500Z 1515/1516 170007KT 6000 -SN VV015 
     PROB40 1515/1516 2000 BR RASN BKN004 RMK MIL
       
ESKN 160150Z 31004KT 290V350 CAVOK M08/M09 Q0997 R26/410195
TAF ESKN 152330Z 1600/1624 30004KT CAVOK 
     BECMG 1611/1613 15012KT 1200 SN VV008 
     TEMPO 1613/1615 5000 -SN VV020 
     BECMG 1615/1617 9999 NSW SCT010 BKN030 
     TEMPO 1617/1624 3000 -RADZ BR BKN008
       
ESNS 160150Z AUTO 27003KT 9999 NCD M19/M21 Q0993
TAF ESNS 152030Z 1521/1523 28005KT 9999 SCT020
       
ESGR 160150Z AUTO 00000KT 9999 OVC017/// M05/M06 Q0997
ESMS 160150Z 28012KT CAVOK 06/03 Q1000 R17/29//95
TAF ESMS 152303Z 1600/1624 27012KT 7000 BKN015 
     TEMPO 1603/1608 1200 RADZ BKN003 
     BECMG 1608/1610 2500 BR BKN006 
     TEMPO 1610/1617 4000 -RADZ BKN004 
     TEMPO 1617/1624 24015G28KT 4000 -RADZ BKN004
       
ESNN 160150Z AUTO VRB02KT 9999 NCD M15/M16 Q0996 RESG
TAF ESNN 151730Z 1518/1522 31004KT CAVOK
       
ESND 160150Z AUTO VRB02KT 9999 NCD M24/M27 Q0995
ESST 160150Z AUTO 33003KT 9999 FEW004/// M13/M14 Q0998
ESGT 160150Z AUTO 00000KT 4800 BR OVC013/// M01/M01 Q0998
TAF ESGT 151430Z 1515/1518 18005KT 9000 SCT010 OVC020 
     PROB40 1515/1518 2500 BR -SN BKN006
       
ESNU 160150Z AUTO 30004KT 9999 NCD M19/M21 Q0994 R14/75//34
TAF ESNU 152330Z 1600/1609 30005KT CAVOK
       
ESCM 160150Z AUTO 00000KT 9999 NCD M11/M12 Q0997
ESOW 160150Z AUTO 00000KT 9999 NCD M11/M13 Q0998
ESPE 160150Z AUTO 00000KT 9999 NCD M25/M27 Q0993
ESNV 160150Z AUTO 11003KT 9999 NCD M28/M31 Q0993
ESSV 160150Z AUTO 32008KT 9999 SCT028/// BKN044/// M01/M06 Q0997
TAF ESSV 152030Z 1521/1523 30008KT 9999 SCT020 
     PROB40 1521/1523 4000 -SN BKN014